createdAt,value
2023-01-09T00:01:13.733Z,4.03
2023-01-09T00:06:10.909Z,4.11
2023-01-09T00:11:08.052Z,4.13
2023-01-09T00:16:04.954Z,4.41
2023-01-09T00:21:03.411Z,4.47
2023-01-09T00:26:04.974Z,4.61
2023-01-09T00:31:03.823Z,4.68
2023-01-09T00:36:01.210Z,4.67
2023-01-09T00:41:00.009Z,4.79
2023-01-09T00:45:57.489Z,4.76
2023-01-09T00:50:57.475Z,4.83
2023-01-09T00:55:55.258Z,4.84
2023-01-09T01:00:52.825Z,4.84
2023-01-09T01:06:07.890Z,4.71
2023-01-09T01:11:06.079Z,4.95
2023-01-09T01:16:05.569Z,4.54
2023-01-09T01:21:06.645Z,4.84
2023-01-09T01:26:08.729Z,4.84
2023-01-09T01:31:07.200Z,4.87
2023-01-09T01:36:06.308Z,5.11
2023-01-09T01:41:03.987Z,4.86
2023-01-09T01:46:01.192Z,5.06
2023-01-09T01:51:04.416Z,5.11
2023-01-09T01:56:06.493Z,5.07
2023-01-09T02:01:03.536Z,5.05
2023-01-09T02:06:04.213Z,5.06
2023-01-09T02:11:02.304Z,5.14
2023-01-09T02:16:09.642Z,5.16
2023-01-09T02:21:14.226Z,5.05
2023-01-09T02:26:43.631Z,5.01
2023-01-09T02:31:49.605Z,4.99
2023-01-09T02:36:56.154Z,4.92
2023-01-09T02:41:58.765Z,4.98
2023-01-09T02:47:04.500Z,4.96
2023-01-09T02:52:15.974Z,5.14
2023-01-09T02:57:31.460Z,5.13
2023-01-09T03:02:44.243Z,5.01
2023-01-09T03:07:45.472Z,4.89
2023-01-09T03:12:43.306Z,5.11
2023-01-09T03:17:45.534Z,5.04
2023-01-09T03:22:47.393Z,5.00
2023-01-09T03:27:44.181Z,5.10
2023-01-09T03:32:41.569Z,5.10
2023-01-09T03:37:38.292Z,4.92
2023-01-09T03:42:35.057Z,5.11
2023-01-09T03:47:31.801Z,5.06
2023-01-09T03:52:29.286Z,5.14
2023-01-09T03:57:26.098Z,5.16
2023-01-09T04:02:22.887Z,5.01
2023-01-09T04:07:19.663Z,5.13
2023-01-09T04:12:17.102Z,5.06
2023-01-09T04:17:15.956Z,5.18
2023-01-09T04:22:12.748Z,5.14
2023-01-09T04:27:11.517Z,5.23
2023-01-09T04:32:09.140Z,5.17
2023-01-09T04:37:05.998Z,5.09
2023-01-09T04:42:02.845Z,4.93
2023-01-09T04:46:59.833Z,5.03
2023-01-09T04:51:57.480Z,4.87
2023-01-09T04:56:54.340Z,4.99
2023-01-09T05:01:52.158Z,4.99
2023-01-09T05:06:49.026Z,4.93
2023-01-09T05:11:46.515Z,4.64
2023-01-09T05:16:43.321Z,4.61
2023-01-09T05:21:40.059Z,4.95
2023-01-09T05:26:36.907Z,4.77
2023-01-09T05:31:34.420Z,4.97
2023-01-09T05:36:31.243Z,4.91
2023-01-09T05:41:28.431Z,4.78
2023-01-09T05:46:25.441Z,4.61
2023-01-09T05:51:23.275Z,4.96
2023-01-09T05:56:20.178Z,4.46
2023-01-09T06:01:17.046Z,4.85
2023-01-09T06:06:13.860Z,4.52
2023-01-09T06:11:11.466Z,4.90
2023-01-09T06:16:14.319Z,4.91
2023-01-09T06:21:13.042Z,4.72
2023-01-09T06:26:09.863Z,4.98
2023-01-09T06:31:10.771Z,4.91
2023-01-09T06:36:08.250Z,4.73
2023-01-09T06:41:06.097Z,5.01
2023-01-09T06:46:05.013Z,4.94
2023-01-09T06:51:04.000Z,5.24
2023-01-09T06:56:02.179Z,5.31
2023-01-09T07:00:59.033Z,5.42
2023-01-09T07:05:57.854Z,5.45
2023-01-09T07:10:55.342Z,5.58
2023-01-09T07:15:53.078Z,5.25
2023-01-09T07:20:51.614Z,5.24
2023-01-09T07:25:51.881Z,5.39
2023-01-09T07:30:49.414Z,5.54
2023-01-09T07:35:46.421Z,5.67
2023-01-09T07:40:43.183Z,5.70
2023-01-09T07:45:39.977Z,6.13
2023-01-09T07:50:37.558Z,6.24
2023-01-09T07:55:34.328Z,6.04
2023-01-09T08:00:33.045Z,6.48
2023-01-09T08:05:30.090Z,6.58
2023-01-09T08:10:32.337Z,6.39
2023-01-09T08:15:30.210Z,6.79
2023-01-09T08:20:27.244Z,6.59
2023-01-09T08:25:24.900Z,6.50
2023-01-09T08:30:22.634Z,6.31
2023-01-09T08:35:20.173Z,6.18
2023-01-09T08:40:17.981Z,6.15
2023-01-09T08:45:32.824Z,6.14
2023-01-09T08:50:30.346Z,6.07
2023-01-09T08:55:27.243Z,5.35
2023-01-09T09:00:29.813Z,5.48
2023-01-09T09:05:29.219Z,5.07
2023-01-09T09:10:30.059Z,5.50
2023-01-09T09:15:29.998Z,5.04
2023-01-09T09:20:31.904Z,5.11
2023-01-09T09:25:33.133Z,5.40
2023-01-09T09:30:31.020Z,5.52
2023-01-09T09:35:27.972Z,5.69
2023-01-09T09:40:51.690Z,5.69
2023-01-09T09:45:54.040Z,5.76
2023-01-09T09:51:17.391Z,6.26
2023-01-09T09:56:21.192Z,6.51
2023-01-09T10:01:23.021Z,6.51
2023-01-09T10:06:27.735Z,6.45
2023-01-09T10:11:36.200Z,6.90
2023-01-09T10:16:47.789Z,6.91
2023-01-09T10:21:56.263Z,7.01
2023-01-09T10:26:59.819Z,6.78
2023-01-09T10:32:19.872Z,6.38
2023-01-09T10:37:20.174Z,6.40
2023-01-09T10:42:24.864Z,6.35
2023-01-09T10:47:26.486Z,6.10
2023-01-09T10:52:29.829Z,6.23
2023-01-09T10:57:44.468Z,5.90
2023-01-09T11:02:45.217Z,6.65
2023-01-09T11:07:45.741Z,6.90
2023-01-09T11:12:43.463Z,7.03
2023-01-09T11:17:40.318Z,7.38
2023-01-09T11:22:46.484Z,7.65
2023-01-09T11:27:44.300Z,7.43
2023-01-09T11:32:41.631Z,7.87
2023-01-09T11:37:38.549Z,7.87
2023-01-09T11:42:53.522Z,7.54
2023-01-09T11:47:51.009Z,7.82
2023-01-09T11:53:12.507Z,7.91
2023-01-09T11:58:14.272Z,7.79
2023-01-09T12:03:27.649Z,7.98
2023-01-09T12:08:35.132Z,7.40
2023-01-09T12:13:43.426Z,6.39
2023-01-09T12:19:07.238Z,6.50
2023-01-09T12:24:43.714Z,6.62
2023-01-09T12:29:50.059Z,6.87
2023-01-09T12:34:54.840Z,7.03
2023-01-09T12:40:02.750Z,6.61
2023-01-09T12:45:02.383Z,5.82
2023-01-09T12:50:09.851Z,5.65
2023-01-09T12:55:15.336Z,5.41
2023-01-09T13:00:18.315Z,5.11
2023-01-09T13:05:20.387Z,5.32
2023-01-09T13:10:22.020Z,5.04
2023-01-09T13:15:28.660Z,5.35
2023-01-09T13:20:39.454Z,4.50
2023-01-09T13:25:44.112Z,4.82
2023-01-09T13:31:10.900Z,4.96
2023-01-09T13:36:19.745Z,5.14
2023-01-09T13:41:46.174Z,5.49
2023-01-09T13:46:55.648Z,5.78
2023-01-09T13:52:17.773Z,5.99
2023-01-09T13:57:27.733Z,5.64
2023-01-09T14:02:53.785Z,6.26
2023-01-09T14:08:02.072Z,6.18
2023-01-09T14:12:59.140Z,6.10
2023-01-09T14:17:59.534Z,5.55
2023-01-09T14:23:18.172Z,5.22
2023-01-09T14:28:22.803Z,5.34
2023-01-09T14:33:29.341Z,5.80
2023-01-09T14:38:30.659Z,6.11
2023-01-09T14:43:41.283Z,5.93
2023-01-09T14:48:45.472Z,5.29
2023-01-09T14:53:43.487Z,5.72
2023-01-09T14:58:40.371Z,5.63
2023-01-09T15:03:40.620Z,5.59
2023-01-09T15:08:37.721Z,5.81
2023-01-09T15:13:40.828Z,5.60
2023-01-09T15:18:41.825Z,5.54
2023-01-09T15:23:38.639Z,5.84
2023-01-09T15:28:42.559Z,5.62
2023-01-09T15:33:40.519Z,6.03
2023-01-09T15:38:39.664Z,6.07
2023-01-09T15:43:40.475Z,5.87
2023-01-09T15:48:38.056Z,6.25
2023-01-09T15:53:35.212Z,6.35
2023-01-09T15:58:34.481Z,6.36
2023-01-09T16:03:31.606Z,6.41
2023-01-09T16:08:33.882Z,6.55
2023-01-09T16:13:38.594Z,6.32
2023-01-09T16:18:38.050Z,6.56
2023-01-09T16:23:36.123Z,6.53
2023-01-09T16:28:33.157Z,5.75
2023-01-09T16:33:31.550Z,6.21
2023-01-09T16:38:28.567Z,6.43
2023-01-09T16:43:26.079Z,6.24
2023-01-09T16:48:25.893Z,6.25
2023-01-09T16:53:26.485Z,5.84
2023-01-09T16:58:26.909Z,5.79
2023-01-09T17:03:24.298Z,5.71
2023-01-09T17:08:22.786Z,5.52
2023-01-09T17:13:19.772Z,5.64
2023-01-09T17:18:19.112Z,5.53
2023-01-09T17:23:16.097Z,5.49
2023-01-09T17:28:32.329Z,5.21
2023-01-09T17:33:29.965Z,5.18
2023-01-09T17:38:26.780Z,4.83
2023-01-09T17:43:23.910Z,4.69
2023-01-09T17:48:22.365Z,4.40
2023-01-09T17:53:22.040Z,4.15
2023-01-09T17:58:29.722Z,4.19
2023-01-09T18:03:32.679Z,3.76
2023-01-09T18:08:30.542Z,3.89
2023-01-09T18:13:28.222Z,3.97
2023-01-09T18:18:25.098Z,3.59
2023-01-09T18:23:23.550Z,3.74
2023-01-09T18:28:21.008Z,4.23
2023-01-09T18:33:18.418Z,4.05
2023-01-09T18:38:17.935Z,3.82
2023-01-09T18:43:14.934Z,3.62
2023-01-09T18:48:12.615Z,4.09
2023-01-09T18:53:12.174Z,3.60
2023-01-09T18:58:09.038Z,3.65
2023-01-09T19:03:05.972Z,3.29
2023-01-09T19:08:03.577Z,2.84
2023-01-09T19:13:00.492Z,2.84
2023-01-09T19:17:57.667Z,2.44
2023-01-09T19:22:56.482Z,2.43
2023-01-09T19:27:55.457Z,2.01
2023-01-09T19:32:52.559Z,1.72
2023-01-09T19:37:49.382Z,2.13
2023-01-09T19:42:47.013Z,2.01
2023-01-09T19:47:44.849Z,1.47
2023-01-09T19:52:42.693Z,1.92
2023-01-09T19:57:39.551Z,1.68
2023-01-09T20:02:36.460Z,1.37
2023-01-09T20:07:34.548Z,1.57
2023-01-09T20:12:32.444Z,1.44
2023-01-09T20:17:30.719Z,1.02
2023-01-09T20:22:28.610Z,1.35
2023-01-09T20:27:26.629Z,0.77
2023-01-09T20:32:23.646Z,0.97
2023-01-09T20:37:20.480Z,0.70
2023-01-09T20:42:17.308Z,1.59
2023-01-09T20:47:14.786Z,1.40
2023-01-09T20:52:13.224Z,1.59
2023-01-09T20:57:10.106Z,1.51
2023-01-09T21:02:12.833Z,1.64
2023-01-09T21:07:10.370Z,2.10
2023-01-09T21:12:24.068Z,1.66
2023-01-09T21:17:21.246Z,1.87
2023-01-09T21:22:18.903Z,1.72
2023-01-09T21:27:15.780Z,1.59
2023-01-09T21:32:12.695Z,1.31
2023-01-09T21:37:09.515Z,1.32
2023-01-09T21:42:25.154Z,1.48
2023-01-09T21:47:22.314Z,1.45
2023-01-09T21:52:20.350Z,1.46
2023-01-09T21:57:18.058Z,1.23
2023-01-09T22:02:15.595Z,1.40
2023-01-09T22:07:12.368Z,1.52
2023-01-09T22:12:11.357Z,1.57
2023-01-09T22:17:08.826Z,1.27
2023-01-09T22:22:07.785Z,1.67
2023-01-09T22:27:04.612Z,1.68
2023-01-09T22:32:01.754Z,1.71
2023-01-09T22:36:59.729Z,1.43
2023-01-09T22:41:58.501Z,1.76
2023-01-09T22:46:56.738Z,1.98
2023-01-09T22:51:53.554Z,2.08
2023-01-09T22:56:51.000Z,2.10
2023-01-09T23:01:47.814Z,2.23
2023-01-09T23:06:44.849Z,2.40
2023-01-09T23:11:59.470Z,2.46
2023-01-09T23:16:57.271Z,2.72
2023-01-09T23:21:54.108Z,2.73
2023-01-09T23:26:51.609Z,2.64
2023-01-09T23:31:48.449Z,2.63
2023-01-09T23:36:47.711Z,2.79
2023-01-09T23:42:02.984Z,2.84
2023-01-09T23:46:59.756Z,2.50
2023-01-09T23:51:57.485Z,2.76
2023-01-09T23:56:55.833Z,2.59
